Amunt
Inicio > meteoXarxa
Fes-te'n soci

METEOXARXA

Portell de Morella
Ubicació
Comarca els Ports
Altitud (msnm) 1074
Posició geogràfica 40° 31' 57.00" N, 00° 15' 45.00" W
Model Davis Vantage Pro 2 Calefactada
Presa de dades
Font de les dades AVAMET Portell (+dades online)
Estadístiques. Resum
Data Temperatura (ºC) Humitat (%) Pressió (hPa) Vent (km/h) Precipit. (mm)
Mínima Mitjana Màxima Mínima Mitjana Màxima Mínima Mitjana Màxima Predom. Mitjana Ràfega màxima Total Dies de pluja
Mínima Mitjana Màxima Mínima Mitjana Màxima
Últimes dades diàries
20-02-2017 0,6     5,4     12,6 SSE 1,9 19,3 0,0  
19-02-2017 2,9     5,8     10,9 SE 2,4 17,7 0,0  
18-02-2017 0,7     6,0     13,4 ESE 2,4 24,1 0,0  
17-02-2017 1,1     6,4     13,2 WNW 1,3 16,1 0,0  
16-02-2017 4,2     6,8     10,8 SE 2,6 25,7 0,0  
15-02-2017 0,8     6,2     12,4 ESE 1,9 19,3 0,0  
14-02-2017 1,7     6,4     11,7 ESE 3,9 27,4 0,0  
13-02-2017 5,2     7,2     9,1 ESE 7,4 49,9 8,6  
12-02-2017 5,6     6,6     8,0 ESE 13,4 51,5 0,0  
11-02-2017 1,6     4,2     6,1 ESE 6,9 25,7 2,0  
10-02-2017 1,3     3,3     6,6 SE 8,5 33,8 0,0  
09-02-2017 0,6     4,0     11,4 WNW 12,6 61,2 0,0  
08-02-2017 0,5     2,0     4,5 WNW 33,3 77,2 1,0  
07-02-2017 2,7     8,9     11,3 WNW 19,0 64,4 6,9  
06-02-2017 3,2     6,7     10,6 WNW 31,4 86,9 0,0  
05-02-2017 3,2     7,0     11,7 WNW 26,1 85,3 1,3  
04-02-2017 7,6     11,3     15,1 WNW 15,4 88,5 0,3  
03-02-2017 4,6     8,2     12,2 WSW 12,9 91,7 0,0  
02-02-2017 2,5     5,7     10,4 WSW 4,5 37,0 3,8  
01-02-2017 2,4     7,9     15,9 W 2,6 22,5 0,0  
31-01-2017 3,4     8,1     14,7 ENE 1,3 14,5 0,0  
30-01-2017 5,4     7,9     11,3 WNW 3,9 22,5 0,0  
29-01-2017 -0,2     5,2     9,2 W 4,8 25,7 0,0  
28-01-2017 2,3     3,6     5,6 WNW 20,6 53,1 3,0  
27-01-2017 1,7     3,9     7,9 SE 8,0 37,0 6,1  
26-01-2017 -3,7     0,9     5,8 SE 3,5 32,2 0,0  
25-01-2017 -2,4     3,0     6,2 WNW 9,7 32,2 0,0  
24-01-2017 0,0     2,6     6,2 WNW 12,4 37,0 0,0  
23-01-2017 0,1     1,9     3,6 WNW 18,7 38,6 0,0  
22-01-2017 0,3     1,5     2,8 WNW 16,4 35,4 1,0  
21-01-2017 0,5     1,3     2,7 WNW 11,7 35,4 4,1  
20-01-2017 -2,1     -0,1     0,7 WNW 7,4 30,6 29,7  
Dades del mes en curs (actualitzades fins l'últim dia disponible)
02/2017 0,5 2,7 7,6 6,3 4,5 10,9 15,9   10,5 91,7 23,9  
Últimes dades mensuals
01/2017 -6,9 0,1 6,5 3,7 -1,4 7,8 16,8 13,1 83,7 51,7 7
12/2016 -0,7 2,5 7,8 6,1 3,2 11,0 18,0 3,8 53,1 66,7 6
11/2016 -1,4 4,6 11,8 8,2 6,9 12,5 21,6 7,2 90,1 87,6 12
10/2016 3,5 9,3 13,4 13,8 12,0 19,3 25,4 3,4 41,8 32,8 6
09/2016 7,9 13,3 22,4 17,7 16,1 23,5 33,6 6,0 56,3 26,9 5
08/2016 7,9 14,4 19,9 20,8 22,2 27,6 31,4 4,5 57,9 14,7 4
07/2016 6,7 15,0 21,2 21,2 21,2 27,7 33,6 5,3 54,7 22,2 5
06/2016 7,2 12,4 17,8 18,0 16,2 23,9 29,8 6,5 57,9 102,7 9
05/2016 -0,2 7,8 12,9 12,8 9,6 18,2 25,7 8,8 61,2 27,2 7
04/2016 -0,6 4,6 9,7 9,2 8,0 14,1 19,6 8,7 62,8 44,9 10
03/2016 -3,4 2,8 9,1 6,3 3,7 10,5 21,6 12,1 75,6 23,9 10
02/2016 -7,8 2,0 10,3 6,3 3,4 11,2 16,7 13,3 111,0 20,2 9
01/2016 -1,1 3,6 10,6 7,4 3,4 11,9 17,8 9,1 72,4 8,9 8
Dades de l'any en curs (actualitzades fins l'últim dia disponible)
2017 -6,9 1,1 7,6 4,7 -1,4 9,0 16,8   12,1 91,7 75,6  
Últimes dades anuals
2016 -7,8 7,7 22,4 12,3 3,2 17,6 33,6 7,4 111,0 478,7 91